Hovedside
METAR-TAF:

METAR-TAF

Lufthavner :

Kwajalein, Marshalløyene

breddegrad: 08-43N, lengdegrad: 167-44E, høyde over havet: 3 m

Gjeldene værobservasjon

Denne rapporten ble laget for 25 minutter siden, klokken 03:20 UTC
Vind 14 kt fra Øst-nordøst
Temperatur 31°C
Luftfuktighet 66%
Trykk 1008 hPa
Sikt: 16.1 km
Spredte skyer i en høyde av 2600 ft

METAR: PKWA 200320Z AUTO 07014KT 10SM SCT026 31/24 A2976 RMK AO2 T03060243

Tid: 15:45 (03:45 UTC)

Varsel

Denne rapporten ble laget for 4 timer og 11 minutter siden, klokken 23:34 UTC
Varsel gyldig fra 20. klokken 00 UTC til 20. klokken 24 UTC
Vind 16 kt fra Øst-nordøst
Sikt: 10 km
Få skyer i en høyde av 2500 ft
Fra 20. klokken 0400 UTC
Vind 14 kt fra Øst-nordøst
Sikt: 10 km
Spredte skyer i en høyde av 2000 ft
Spredte skyer i en høyde av 12000 ft
byger på avstand,

TAF: PKWA 192334Z 2000/2024 07016KT P6SM FEW025 FM200400 07014KT P6SM VCSH SCT020 SCT120

Værobservasjoner og værvarsel for over 4000 flyplasser (METAR- og TAF-rapporter).

Tilgjengelige stasjoner er representert av de røde og gule prikkene på kartet.

Hold musepekeren over prikken for å se navnet på stasjonen.

Klikk så for å se værobservasjoner og -varsler.

For å forandre kartet kan du klikke på den grønne knappen med svart kryss for å zoome inn, på den grønne knappen med strek for å zoome ut, eller på de grønne pilene for å se tilstøtende kart.


METAR-TAF: